createdAt,value
2018-07-14T00:01:25.480Z,18.10
2018-07-14T00:06:16.359Z,18.10
2018-07-14T00:11:07.311Z,18.00
2018-07-14T00:15:58.211Z,18.00
2018-07-14T00:20:49.103Z,17.90
2018-07-14T00:25:40.060Z,17.90
2018-07-14T00:30:31.023Z,17.80
2018-07-14T00:35:22.666Z,17.70
2018-07-14T00:40:14.311Z,17.70
2018-07-14T00:45:05.194Z,17.60
2018-07-14T00:49:56.087Z,17.60
2018-07-14T00:54:46.980Z,17.60
2018-07-14T00:59:37.889Z,17.50
2018-07-14T01:04:28.830Z,17.50
2018-07-14T01:09:19.736Z,17.40
2018-07-14T01:14:10.669Z,17.40
2018-07-14T01:19:02.298Z,17.30
2018-07-14T01:23:53.229Z,17.30
2018-07-14T01:28:44.141Z,17.30
2018-07-14T01:33:35.031Z,17.20
2018-07-14T01:38:25.961Z,17.20
2018-07-14T01:43:16.860Z,17.20
2018-07-14T01:48:07.759Z,17.10
2018-07-14T01:52:59.394Z,17.10
2018-07-14T01:57:51.065Z,17.00
2018-07-14T02:02:41.981Z,17.00
2018-07-14T02:07:32.897Z,17.00
2018-07-14T02:12:23.803Z,16.90
2018-07-14T02:17:14.717Z,16.90
2018-07-14T02:22:06.382Z,16.80
2018-07-14T02:27:12.290Z,16.80
2018-07-14T02:32:03.198Z,16.80
2018-07-14T02:36:54.105Z,16.70
2018-07-14T02:41:45.018Z,16.70
2018-07-14T02:46:35.911Z,16.70
2018-07-14T02:51:26.807Z,16.60
2018-07-14T02:56:18.446Z,16.60
2018-07-14T03:01:10.087Z,16.50
2018-07-14T03:06:00.986Z,16.50
2018-07-14T03:10:52.644Z,16.40
2018-07-14T03:15:43.550Z,16.40
2018-07-14T03:20:35.218Z,16.30
2018-07-14T03:25:26.113Z,16.30
2018-07-14T03:30:17.025Z,16.30
2018-07-14T03:35:08.672Z,16.20
2018-07-14T03:39:59.577Z,16.20
2018-07-14T03:44:51.221Z,16.20
2018-07-14T03:49:43.532Z,16.10
2018-07-14T03:54:34.427Z,16.10
2018-07-14T03:59:25.319Z,16.10
2018-07-14T04:04:16.254Z,16.10
2018-07-14T04:09:07.223Z,16.00
2018-07-14T04:14:13.085Z,16.10
2018-07-14T04:19:03.974Z,16.00
2018-07-14T04:23:54.866Z,16.00
2018-07-14T04:28:45.755Z,16.00
2018-07-14T04:33:37.463Z,16.00
2018-07-14T04:38:28.372Z,16.00
2018-07-14T04:43:19.271Z,16.00
2018-07-14T04:48:10.246Z,16.00
2018-07-14T04:53:02.172Z,16.00
2018-07-14T04:57:53.037Z,16.00
2018-07-14T05:02:43.944Z,16.10
2018-07-14T05:07:34.898Z,16.10
2018-07-14T05:12:25.802Z,16.20
2018-07-14T05:17:16.712Z,16.20
2018-07-14T05:22:07.625Z,16.30
2018-07-14T05:26:58.556Z,16.30
2018-07-14T05:31:49.465Z,16.40
2018-07-14T05:36:40.380Z,16.40
2018-07-14T05:41:32.019Z,16.50
2018-07-14T05:46:22.957Z,16.50
2018-07-14T05:51:13.871Z,16.60
2018-07-14T05:56:04.761Z,16.70
2018-07-14T06:00:56.416Z,16.90
2018-07-14T06:05:47.385Z,16.90
2018-07-14T06:10:38.287Z,17.00
2018-07-14T06:15:29.187Z,17.00
2018-07-14T06:20:20.152Z,17.10
2018-07-14T06:25:11.046Z,17.20
2018-07-14T06:30:02.709Z,17.40
2018-07-14T06:34:54.356Z,17.50
2018-07-14T06:39:46.029Z,17.50
2018-07-14T06:44:36.975Z,17.50
2018-07-14T06:49:29.346Z,17.60
2018-07-14T06:54:20.324Z,17.60
2018-07-14T06:59:11.159Z,17.70
2018-07-14T07:04:02.060Z,17.80
2018-07-14T07:08:53.012Z,17.80
2018-07-14T07:13:43.926Z,17.90
2018-07-14T07:18:34.819Z,18.00
2018-07-14T07:23:25.795Z,18.10
2018-07-14T07:28:17.431Z,18.30
2018-07-14T07:33:09.060Z,18.50
2018-07-14T07:38:00.700Z,18.60
2018-07-14T07:42:52.350Z,18.70
2018-07-14T07:47:44.029Z,18.90
2018-07-14T07:52:34.945Z,18.80
2018-07-14T07:57:26.001Z,19.00
2018-07-14T08:02:17.653Z,19.20
2018-07-14T08:07:09.293Z,19.40
2018-07-14T08:12:00.203Z,19.30
2018-07-14T08:16:51.845Z,19.60
2018-07-14T08:21:43.497Z,19.70
2018-07-14T08:26:34.470Z,19.70
2018-07-14T08:31:25.374Z,19.70
2018-07-14T08:36:16.328Z,19.90
2018-07-14T08:41:07.945Z,20.00
2018-07-14T08:45:58.838Z,20.00
2018-07-14T08:50:49.736Z,20.00
2018-07-14T08:55:40.655Z,20.00
2018-07-14T09:00:31.559Z,20.00
2018-07-14T09:05:22.460Z,20.10
2018-07-14T09:10:14.143Z,20.10
2018-07-14T09:15:05.054Z,20.10
2018-07-14T09:19:55.995Z,20.10
2018-07-14T09:24:46.950Z,20.20
2018-07-14T09:29:37.865Z,20.20
2018-07-14T09:34:29.530Z,20.30
2018-07-14T09:39:20.446Z,20.30
2018-07-14T09:44:11.428Z,20.30
2018-07-14T09:49:03.137Z,20.40
2018-07-14T09:53:54.028Z,20.30
2018-07-14T09:58:44.922Z,20.40
2018-07-14T10:03:36.568Z,20.40
2018-07-14T10:08:27.464Z,20.40
2018-07-14T10:13:19.148Z,20.50
2018-07-14T10:18:10.030Z,20.50
2018-07-14T10:23:01.718Z,20.70
2018-07-14T10:27:52.632Z,20.60
2018-07-14T10:32:43.540Z,20.70
2018-07-14T10:37:34.478Z,20.80
2018-07-14T10:42:25.441Z,20.80
2018-07-14T10:47:16.287Z,20.90
2018-07-14T10:52:07.193Z,21.00
2018-07-14T10:56:58.087Z,21.20
2018-07-14T11:01:49.718Z,21.50
2018-07-14T11:06:41.374Z,21.70
2018-07-14T11:11:32.282Z,21.60
2018-07-14T11:16:23.198Z,21.90
2018-07-14T11:21:14.849Z,22.40
2018-07-14T11:26:05.750Z,22.40
2018-07-14T11:30:57.402Z,22.90
2018-07-14T11:35:48.288Z,22.90
2018-07-14T11:40:39.941Z,23.50
2018-07-14T11:45:30.837Z,23.40
2018-07-14T11:50:21.765Z,23.80
2018-07-14T11:55:12.636Z,24.10
2018-07-14T12:00:03.541Z,24.50
2018-07-14T12:04:54.430Z,24.90
2018-07-14T12:09:46.093Z,25.60
2018-07-14T12:14:36.990Z,25.60
2018-07-14T12:19:27.878Z,26.00
2018-07-14T12:24:18.798Z,26.40
2018-07-14T12:29:09.690Z,26.70
2018-07-14T12:34:00.601Z,27.10
2018-07-14T12:38:51.498Z,27.40
2018-07-14T12:43:42.409Z,27.80
2018-07-14T12:48:33.309Z,28.10
2018-07-14T12:53:24.955Z,28.80
2018-07-14T12:58:15.862Z,28.70
2018-07-14T13:03:07.517Z,29.30
2018-07-14T13:07:58.437Z,29.30
2018-07-14T13:12:49.335Z,29.50
2018-07-14T13:17:40.979Z,29.70
2018-07-14T13:22:31.907Z,29.80
2018-07-14T13:27:22.837Z,29.80
2018-07-14T13:32:13.753Z,29.80
2018-07-14T13:37:04.662Z,29.80
2018-07-14T13:41:55.590Z,29.70
2018-07-14T13:46:46.509Z,29.60
2018-07-14T13:51:37.417Z,29.50
2018-07-14T13:56:28.338Z,29.40
2018-07-14T14:01:19.256Z,29.30
2018-07-14T14:06:10.182Z,29.30
2018-07-14T14:11:01.110Z,29.30
2018-07-14T14:15:52.002Z,29.40
2018-07-14T14:20:42.910Z,29.60
2018-07-14T14:25:34.568Z,30.00
2018-07-14T14:30:25.509Z,29.90
2018-07-14T14:35:16.399Z,30.10
2018-07-14T14:40:07.300Z,30.30
2018-07-14T14:44:59.049Z,30.50
2018-07-14T14:49:49.976Z,30.60
2018-07-14T14:54:40.881Z,30.70
2018-07-14T14:59:31.803Z,30.70
2018-07-14T15:04:22.736Z,30.80
2018-07-14T15:09:13.657Z,30.70
2018-07-14T15:14:04.569Z,30.80
2018-07-14T15:18:55.490Z,30.70
2018-07-14T15:23:46.393Z,30.70
2018-07-14T15:28:37.305Z,30.60
2018-07-14T15:33:28.951Z,30.30
2018-07-14T15:38:19.879Z,30.30
2018-07-14T15:43:10.790Z,30.10
2018-07-14T15:48:01.709Z,29.90
2018-07-14T15:58:20.403Z,29.50
2018-07-14T16:03:11.403Z,29.20
2018-07-14T16:08:03.082Z,28.60
2018-07-14T16:12:53.952Z,28.60
2018-07-14T16:17:44.852Z,28.40
2018-07-14T16:22:35.761Z,28.10
2018-07-14T16:27:26.648Z,27.80
2018-07-14T16:37:21.640Z,27.30
2018-07-14T16:42:12.535Z,27.10
2018-07-14T16:47:03.498Z,26.90
2018-07-14T16:51:54.398Z,26.70
2018-07-14T16:56:45.307Z,26.50
2018-07-14T17:01:36.195Z,26.30
2018-07-14T17:06:27.839Z,25.90
2018-07-14T17:11:19.759Z,25.70
2018-07-14T17:16:10.644Z,25.60
2018-07-14T17:21:01.540Z,25.50
2018-07-14T17:25:52.433Z,25.30
2018-07-14T17:30:44.083Z,24.90
2018-07-14T17:35:35.015Z,24.90
2018-07-14T17:40:25.895Z,24.80
2018-07-14T17:45:17.520Z,24.40
2018-07-14T17:50:08.399Z,24.40
2018-07-14T17:54:59.332Z,24.30
2018-07-14T17:59:50.305Z,24.10
2018-07-14T18:04:41.157Z,23.90
2018-07-14T18:09:32.040Z,23.70
2018-07-14T18:14:22.939Z,23.60
2018-07-14T18:19:14.570Z,23.30
2018-07-14T18:24:06.271Z,23.10
2018-07-14T18:28:57.170Z,23.10
2018-07-14T18:33:48.083Z,22.90
2018-07-14T18:38:38.973Z,22.80
2018-07-14T18:43:30.599Z,22.50
2018-07-14T18:48:22.239Z,22.30
2018-07-14T18:53:14.492Z,22.20
2018-07-14T18:58:05.565Z,22.20
2018-07-14T19:02:56.560Z,22.10
2018-07-14T19:07:47.423Z,22.00
2018-07-14T19:12:38.420Z,21.80
2018-07-14T19:17:29.349Z,21.70
2018-07-14T19:22:20.272Z,21.60
2018-07-14T19:27:11.165Z,21.40
2018-07-14T19:32:02.092Z,21.30
2018-07-14T19:36:53.754Z,21.10
2018-07-14T19:41:45.476Z,20.90
2018-07-14T19:46:36.365Z,20.90
2018-07-14T19:51:27.304Z,20.80
2018-07-14T19:56:18.988Z,20.50
2018-07-14T20:01:09.848Z,20.50
2018-07-14T20:06:00.804Z,20.40
2018-07-14T20:10:51.695Z,20.20
2018-07-14T20:15:42.627Z,20.10
2018-07-14T20:20:33.524Z,20.00
2018-07-14T20:25:39.412Z,19.80
2018-07-14T20:30:30.476Z,19.70
2018-07-14T20:35:22.119Z,19.50
2018-07-14T20:40:13.092Z,19.40
2018-07-14T20:45:03.942Z,19.40
2018-07-14T20:49:55.629Z,19.10
2018-07-14T20:54:46.511Z,19.10
2018-07-14T20:59:37.461Z,19.00
2018-07-14T21:04:28.408Z,18.90
2018-07-14T21:09:19.420Z,18.80
2018-07-14T21:14:10.433Z,18.70
2018-07-14T21:19:02.112Z,18.50
2018-07-14T21:23:53.810Z,18.40
2018-07-14T21:28:45.540Z,18.30
2018-07-14T21:33:36.465Z,18.20
2018-07-14T21:38:27.388Z,18.20
2018-07-14T21:43:18.299Z,18.10
2018-07-14T21:48:09.211Z,18.00
2018-07-14T21:53:00.978Z,17.80
2018-07-14T21:57:51.978Z,17.80
2018-07-14T22:02:43.713Z,17.60
2018-07-14T22:07:34.644Z,17.60
2018-07-14T22:12:25.932Z,17.60
2018-07-14T22:17:16.883Z,17.50
2018-07-14T22:22:07.788Z,17.40
2018-07-14T22:26:58.724Z,17.30
2018-07-14T22:31:49.620Z,17.20
2018-07-14T22:36:40.508Z,17.10
2018-07-14T22:41:31.486Z,17.00
2018-07-14T22:46:22.390Z,16.90
2018-07-14T22:51:13.294Z,16.80
2018-07-14T22:56:04.221Z,16.70
2018-07-14T23:05:52.819Z,16.50
2018-07-14T23:10:43.726Z,16.40
2018-07-14T23:15:34.668Z,16.30
2018-07-14T23:20:25.556Z,16.20
2018-07-14T23:25:16.499Z,16.10
2018-07-14T23:30:07.411Z,16.10
2018-07-14T23:34:58.371Z,16.00
2018-07-14T23:39:49.996Z,15.80
2018-07-14T23:44:40.991Z,15.80
2018-07-14T23:49:31.901Z,15.70
2018-07-14T23:54:22.827Z,15.60
2018-07-14T23:59:13.716Z,15.60
